sensor_id;sensor_type;location;lat;lon;timestamp;P1;durP1;ratioP1;P2;durP2;ratioP2
42702;SDS011;28341;52.064;4.920;2024-03-23T00:54:26;41.38;;;9.95;;
42702;SDS011;28341;52.064;4.920;2024-03-23T00:56:29;35.55;;;9.43;;
42702;SDS011;28341;52.064;4.920;2024-03-23T00:58:30;31.30;;;8.70;;
42702;SDS011;28341;52.064;4.920;2024-03-23T01:00:32;30.65;;;8.40;;
42702;SDS011;28341;52.064;4.920;2024-03-23T01:02:34;39.05;;;9.23;;
42702;SDS011;28341;52.064;4.920;2024-03-23T01:04:36;28.77;;;8.55;;
42702;SDS011;28341;52.064;4.920;2024-03-23T01:06:38;35.95;;;9.32;;
42702;SDS011;28341;52.064;4.920;2024-03-23T01:08:40;43.17;;;9.07;;
42702;SDS011;28341;52.064;4.920;2024-03-23T01:10:50;27.33;;;8.13;;
42702;SDS011;28341;52.064;4.920;2024-03-23T01:12:55;31.67;;;8.68;;
42702;SDS011;28341;52.064;4.920;2024-03-23T01:14:57;32.75;;;8.80;;
42702;SDS011;28341;52.064;4.920;2024-03-23T01:16:59;34.95;;;9.45;;
42702;SDS011;28341;52.064;4.920;2024-03-23T01:19:01;27.23;;;8.15;;
42702;SDS011;28341;52.064;4.920;2024-03-23T01:21:03;36.13;;;8.80;;
42702;SDS011;28341;52.064;4.920;2024-03-23T01:23:05;31.23;;;9.48;;
42702;SDS011;28341;52.064;4.920;2024-03-23T01:25:07;34.75;;;9.30;;
42702;SDS011;28341;52.064;4.920;2024-03-23T01:27:12;32.85;;;9.50;;
42702;SDS011;28341;52.064;4.920;2024-03-23T01:29:14;27.20;;;8.27;;
42702;SDS011;28341;52.064;4.920;2024-03-23T01:31:16;28.38;;;9.48;;
42702;SDS011;28341;52.064;4.920;2024-03-23T01:33:18;37.10;;;10.40;;
42702;SDS011;28341;52.064;4.920;2024-03-23T01:35:20;33.25;;;9.07;;
42702;SDS011;28341;52.064;4.920;2024-03-23T01:37:22;34.22;;;9.30;;
42702;SDS011;28341;52.064;4.920;2024-03-23T01:39:24;33.42;;;10.75;;
42702;SDS011;28341;52.064;4.920;2024-03-23T01:41:26;36.47;;;10.07;;
42702;SDS011;28341;52.064;4.920;2024-03-23T01:43:31;40.97;;;9.75;;
42702;SDS011;28341;52.064;4.920;2024-03-23T01:45:33;33.70;;;9.68;;
42702;SDS011;28341;52.064;4.920;2024-03-23T01:47:35;39.38;;;9.40;;
42702;SDS011;28341;52.064;4.920;2024-03-23T01:49:37;34.00;;;9.20;;
42702;SDS011;28341;52.064;4.920;2024-03-23T01:51:40;45.97;;;9.85;;
42702;SDS011;28341;52.064;4.920;2024-03-23T01:53:43;34.35;;;9.90;;
42702;SDS011;28341;52.064;4.920;2024-03-23T01:55:45;27.42;;;7.85;;
42702;SDS011;28341;52.064;4.920;2024-03-23T01:57:47;34.78;;;8.70;;
42702;SDS011;28341;52.064;4.920;2024-03-23T01:59:51;35.13;;;8.98;;
42702;SDS011;28341;52.064;4.920;2024-03-23T02:02:00;34.50;;;8.07;;
42702;SDS011;28341;52.064;4.920;2024-03-23T02:04:04;35.50;;;7.75;;
42702;SDS011;28341;52.064;4.920;2024-03-23T02:06:06;31.70;;;7.97;;
42702;SDS011;28341;52.064;4.920;2024-03-23T02:08:09;30.10;;;7.82;;
42702;SDS011;28341;52.064;4.920;2024-03-23T02:10:11;32.83;;;7.30;;
42702;SDS011;28341;52.064;4.920;2024-03-23T02:12:13;37.78;;;7.80;;
42702;SDS011;28341;52.064;4.920;2024-03-23T02:14:15;33.17;;;8.27;;
42702;SDS011;28341;52.064;4.920;2024-03-23T02:16:20;32.58;;;8.68;;
42702;SDS011;28341;52.064;4.920;2024-03-23T02:18:21;34.00;;;8.73;;
42702;SDS011;28341;52.064;4.920;2024-03-23T02:20:23;28.05;;;7.88;;
42702;SDS011;28341;52.064;4.920;2024-03-23T02:22:25;26.23;;;7.47;;
42702;SDS011;28341;52.064;4.920;2024-03-23T02:24:40;27.58;;;7.20;;
42702;SDS011;28341;52.064;4.920;2024-03-23T02:26:42;30.92;;;6.80;;
42702;SDS011;28341;52.064;4.920;2024-03-23T02:28:44;30.50;;;7.97;;
42702;SDS011;28341;52.064;4.920;2024-03-23T02:30:46;32.08;;;6.45;;
42702;SDS011;28341;52.064;4.920;2024-03-23T02:32:48;31.17;;;6.83;;
42702;SDS011;28341;52.064;4.920;2024-03-23T02:34:50;30.33;;;7.13;;
42702;SDS011;28341;52.064;4.920;2024-03-23T02:36:52;31.38;;;6.55;;
42702;SDS011;28341;52.064;4.920;2024-03-23T02:38:54;23.85;;;6.18;;
42702;SDS011;28341;52.064;4.920;2024-03-23T02:41:03;28.08;;;6.90;;
42702;SDS011;28341;52.064;4.920;2024-03-23T02:43:05;32.35;;;7.50;;
42702;SDS011;28341;52.064;4.920;2024-03-23T02:45:07;22.40;;;6.22;;
42702;SDS011;28341;52.064;4.920;2024-03-23T02:47:10;32.95;;;6.50;;
42702;SDS011;28341;52.064;4.920;2024-03-23T02:49:12;29.50;;;6.28;;
42702;SDS011;28341;52.064;4.920;2024-03-23T02:51:15;25.17;;;5.55;;
42702;SDS011;28341;52.064;4.920;2024-03-23T02:53:17;30.88;;;6.70;;
42702;SDS011;28341;52.064;4.920;2024-03-23T02:55:19;31.73;;;5.85;;
42702;SDS011;28341;52.064;4.920;2024-03-23T02:57:24;28.52;;;6.20;;
42702;SDS011;28341;52.064;4.920;2024-03-23T02:59:26;24.65;;;4.72;;
42702;SDS011;28341;52.064;4.920;2024-03-23T03:01:28;25.55;;;6.15;;
42702;SDS011;28341;52.064;4.920;2024-03-23T03:03:30;26.73;;;5.70;;
42702;SDS011;28341;52.064;4.920;2024-03-23T03:05:32;19.15;;;4.70;;
42702;SDS011;28341;52.064;4.920;2024-03-23T03:07:34;24.65;;;4.90;;
42702;SDS011;28341;52.064;4.920;2024-03-23T03:09:36;27.65;;;5.18;;
42702;SDS011;28341;52.064;4.920;2024-03-23T03:11:38;22.25;;;4.38;;
42702;SDS011;28341;52.064;4.920;2024-03-23T03:13:42;26.90;;;4.93;;
42702;SDS011;28341;52.064;4.920;2024-03-23T03:15:44;20.27;;;4.80;;
42702;SDS011;28341;52.064;4.920;2024-03-23T03:17:47;23.67;;;4.65;;
42702;SDS011;28341;52.064;4.920;2024-03-23T03:19:49;16.58;;;3.83;;
42702;SDS011;28341;52.064;4.920;2024-03-23T03:21:51;24.88;;;4.55;;
42702;SDS011;28341;52.064;4.920;2024-03-23T03:23:53;25.03;;;4.83;;
42702;SDS011;28341;52.064;4.920;2024-03-23T03:25:55;18.90;;;3.97;;
42702;SDS011;28341;52.064;4.920;2024-03-23T03:27:57;17.20;;;4.10;;
42702;SDS011;28341;52.064;4.920;2024-03-23T03:30:01;22.67;;;3.67;;
42702;SDS011;28341;52.064;4.920;2024-03-23T03:32:04;29.92;;;4.30;;
42702;SDS011;28341;52.064;4.920;2024-03-23T03:34:06;24.05;;;4.90;;
42702;SDS011;28341;52.064;4.920;2024-03-23T03:36:09;22.08;;;4.78;;
42702;SDS011;28341;52.064;4.920;2024-03-23T03:38:11;24.63;;;3.40;;
42702;SDS011;28341;52.064;4.920;2024-03-23T03:40:13;27.90;;;3.97;;
42702;SDS011;28341;52.064;4.920;2024-03-23T03:42:15;20.75;;;3.78;;
42702;SDS011;28341;52.064;4.920;2024-03-23T03:44:17;21.42;;;4.45;;
42702;SDS011;28341;52.064;4.920;2024-03-23T03:46:22;20.20;;;3.50;;
42702;SDS011;28341;52.064;4.920;2024-03-23T03:48:24;18.00;;;3.25;;
42702;SDS011;28341;52.064;4.920;2024-03-23T03:50:26;25.42;;;3.67;;
42702;SDS011;28341;52.064;4.920;2024-03-23T03:52:28;19.65;;;2.92;;
42702;SDS011;28341;52.064;4.920;2024-03-23T03:54:30;23.23;;;4.20;;
42702;SDS011;28341;52.064;4.920;2024-03-23T03:56:32;22.75;;;3.25;;
42702;SDS011;28341;52.064;4.920;2024-03-23T03:58:34;17.20;;;3.45;;
42702;SDS011;28341;52.064;4.920;2024-03-23T04:00:36;15.88;;;3.15;;
42702;SDS011;28341;52.064;4.920;2024-03-23T04:02:40;21.00;;;4.18;;
42702;SDS011;28341;52.064;4.920;2024-03-23T04:04:42;25.95;;;3.67;;
42702;SDS011;28341;52.064;4.920;2024-03-23T04:06:44;23.75;;;4.20;;
42702;SDS011;28341;52.064;4.920;2024-03-23T04:08:46;22.40;;;3.22;;
42702;SDS011;28341;52.064;4.920;2024-03-23T04:10:48;15.47;;;3.23;;
42702;SDS011;28341;52.064;4.920;2024-03-23T04:12:50;22.42;;;3.10;;
42702;SDS011;28341;52.064;4.920;2024-03-23T04:14:52;20.13;;;3.17;;
42702;SDS011;28341;52.064;4.920;2024-03-23T04:16:54;24.42;;;3.40;;
42702;SDS011;28341;52.064;4.920;2024-03-23T04:18:59;14.00;;;3.08;;
42702;SDS011;28341;52.064;4.920;2024-03-23T04:21:02;21.80;;;4.15;;
42702;SDS011;28341;52.064;4.920;2024-03-23T04:23:04;13.85;;;3.17;;
42702;SDS011;28341;52.064;4.920;2024-03-23T04:25:06;25.55;;;4.43;;
42702;SDS011;28341;52.064;4.920;2024-03-23T04:27:08;22.40;;;3.58;;
42702;SDS011;28341;52.064;4.920;2024-03-23T04:29:10;22.27;;;4.18;;
42702;SDS011;28341;52.064;4.920;2024-03-23T04:31:12;16.70;;;3.60;;
42702;SDS011;28341;52.064;4.920;2024-03-23T04:33:14;21.10;;;3.67;;
42702;SDS011;28341;52.064;4.920;2024-03-23T04:35:19;15.63;;;3.10;;
42702;SDS011;28341;52.064;4.920;2024-03-23T04:39:31;16.67;;;3.10;;
42702;SDS011;28341;52.064;4.920;2024-03-23T04:41:33;19.63;;;4.05;;
42702;SDS011;28341;52.064;4.920;2024-03-23T04:43:35;23.42;;;4.38;;
42702;SDS011;28341;52.064;4.920;2024-03-23T04:45:37;16.63;;;3.55;;
42702;SDS011;28341;52.064;4.920;2024-03-23T04:47:40;15.65;;;3.17;;
42702;SDS011;28341;52.064;4.920;2024-03-23T04:49:42;15.40;;;3.45;;
42702;SDS011;28341;52.064;4.920;2024-03-23T04:51:46;26.05;;;3.13;;
42702;SDS011;28341;52.064;4.920;2024-03-23T04:53:50;17.40;;;3.50;;
42702;SDS011;28341;52.064;4.920;2024-03-23T04:55:52;20.27;;;3.97;;
42702;SDS011;28341;52.064;4.920;2024-03-23T04:57:54;11.77;;;3.35;;
42702;SDS011;28341;52.064;4.920;2024-03-23T04:59:56;16.42;;;3.00;;
42702;SDS011;28341;52.064;4.920;2024-03-23T05:01:58;20.52;;;3.40;;
42702;SDS011;28341;52.064;4.920;2024-03-23T05:04:00;15.50;;;3.00;;
42702;SDS011;28341;52.064;4.920;2024-03-23T05:06:02;19.45;;;2.92;;
42702;SDS011;28341;52.064;4.920;2024-03-23T05:08:08;19.75;;;2.63;;
42702;SDS011;28341;52.064;4.920;2024-03-23T05:10:10;16.23;;;2.67;;
42702;SDS011;28341;52.064;4.920;2024-03-23T05:12:12;21.48;;;3.75;;
42702;SDS011;28341;52.064;4.920;2024-03-23T05:14:14;18.15;;;2.95;;
42702;SDS011;28341;52.064;4.920;2024-03-23T05:16:16;14.45;;;3.13;;
42702;SDS011;28341;52.064;4.920;2024-03-23T05:18:18;19.98;;;4.57;;
42702;SDS011;28341;52.064;4.920;2024-03-23T05:20:20;16.38;;;3.85;;
42702;SDS011;28341;52.064;4.920;2024-03-23T05:22:22;12.75;;;2.78;;
42702;SDS011;28341;52.064;4.920;2024-03-23T05:24:27;15.95;;;3.65;;
42702;SDS011;28341;52.064;4.920;2024-03-23T05:26:29;16.42;;;3.00;;
42702;SDS011;28341;52.064;4.920;2024-03-23T05:28:31;16.95;;;2.92;;
42702;SDS011;28341;52.064;4.920;2024-03-23T05:30:33;20.25;;;3.92;;
42702;SDS011;28341;52.064;4.920;2024-03-23T05:32:35;18.65;;;3.80;;
42702;SDS011;28341;52.064;4.920;2024-03-23T05:34:37;19.77;;;3.77;;
42702;SDS011;28341;52.064;4.920;2024-03-23T05:36:39;15.07;;;3.10;;
42702;SDS011;28341;52.064;4.920;2024-03-23T05:38:41;15.73;;;3.17;;
42702;SDS011;28341;52.064;4.920;2024-03-23T05:40:55;18.08;;;3.53;;
42702;SDS011;28341;52.064;4.920;2024-03-23T05:44:58;17.25;;;2.80;;
42702;SDS011;28341;52.064;4.920;2024-03-23T05:47:00;29.15;;;3.78;;
42702;SDS011;28341;52.064;4.920;2024-03-23T05:49:02;19.45;;;3.65;;
42702;SDS011;28341;52.064;4.920;2024-03-23T05:51:04;19.20;;;2.95;;
42702;SDS011;28341;52.064;4.920;2024-03-23T05:53:06;17.83;;;3.15;;
42702;SDS011;28341;52.064;4.920;2024-03-23T05:55:08;18.85;;;4.13;;
42702;SDS011;28341;52.064;4.920;2024-03-23T05:57:13;19.17;;;4.13;;
42702;SDS011;28341;52.064;4.920;2024-03-23T05:59:15;21.17;;;3.00;;
42702;SDS011;28341;52.064;4.920;2024-03-23T06:01:16;13.60;;;2.85;;
42702;SDS011;28341;52.064;4.920;2024-03-23T06:03:19;19.60;;;2.90;;
42702;SDS011;28341;52.064;4.920;2024-03-23T06:05:21;15.00;;;2.80;;
42702;SDS011;28341;52.064;4.920;2024-03-23T06:07:23;15.13;;;3.10;;
42702;SDS011;28341;52.064;4.920;2024-03-23T06:09:25;22.83;;;3.42;;
42702;SDS011;28341;52.064;4.920;2024-03-23T06:11:28;17.67;;;3.30;;
42702;SDS011;28341;52.064;4.920;2024-03-23T06:13:32;15.18;;;3.65;;
42702;SDS011;28341;52.064;4.920;2024-03-23T06:15:34;21.73;;;4.28;;
42702;SDS011;28341;52.064;4.920;2024-03-23T06:17:37;24.90;;;4.20;;
42702;SDS011;28341;52.064;4.920;2024-03-23T06:19:39;22.40;;;3.97;;
42702;SDS011;28341;52.064;4.920;2024-03-23T06:21:42;19.05;;;3.28;;
42702;SDS011;28341;52.064;4.920;2024-03-23T06:25:46;16.13;;;4.15;;
42702;SDS011;28341;52.064;4.920;2024-03-23T06:27:49;21.90;;;4.93;;
42702;SDS011;28341;52.064;4.920;2024-03-23T06:29:53;18.75;;;4.20;;
42702;SDS011;28341;52.064;4.920;2024-03-23T06:31:56;21.45;;;4.10;;
42702;SDS011;28341;52.064;4.920;2024-03-23T06:33:58;24.92;;;4.47;;
42702;SDS011;28341;52.064;4.920;2024-03-23T06:36:00;17.27;;;3.90;;
42702;SDS011;28341;52.064;4.920;2024-03-23T06:38:02;20.70;;;4.20;;
42702;SDS011;28341;52.064;4.920;2024-03-23T06:40:05;23.73;;;4.72;;
42702;SDS011;28341;52.064;4.920;2024-03-23T06:42:08;18.98;;;4.00;;
42702;SDS011;28341;52.064;4.920;2024-03-23T06:44:10;18.83;;;4.93;;
42702;SDS011;28341;52.064;4.920;2024-03-23T06:46:15;19.25;;;3.28;;
42702;SDS011;28341;52.064;4.920;2024-03-23T06:48:17;17.33;;;3.80;;
42702;SDS011;28341;52.064;4.920;2024-03-23T06:50:20;26.75;;;5.18;;
42702;SDS011;28341;52.064;4.920;2024-03-23T06:52:22;21.52;;;4.05;;
42702;SDS011;28341;52.064;4.920;2024-03-23T06:54:24;23.63;;;4.13;;
42702;SDS011;28341;52.064;4.920;2024-03-23T06:56:27;21.75;;;4.40;;
42702;SDS011;28341;52.064;4.920;2024-03-23T06:58:29;15.93;;;4.03;;
42702;SDS011;28341;52.064;4.920;2024-03-23T07:00:31;17.88;;;3.97;;
42702;SDS011;28341;52.064;4.920;2024-03-23T07:02:36;15.40;;;3.80;;
42702;SDS011;28341;52.064;4.920;2024-03-23T07:04:38;23.52;;;4.20;;
42702;SDS011;28341;52.064;4.920;2024-03-23T07:06:43;20.10;;;3.50;;
42702;SDS011;28341;52.064;4.920;2024-03-23T07:08:46;20.05;;;4.07;;
42702;SDS011;28341;52.064;4.920;2024-03-23T07:10:48;22.88;;;3.97;;
42702;SDS011;28341;52.064;4.920;2024-03-23T07:12:50;22.92;;;3.55;;
42702;SDS011;28341;52.064;4.920;2024-03-23T07:14:52;15.27;;;3.88;;
42702;SDS011;28341;52.064;4.920;2024-03-23T07:16:54;23.33;;;4.10;;
42702;SDS011;28341;52.064;4.920;2024-03-23T07:18:58;20.05;;;3.35;;
42702;SDS011;28341;52.064;4.920;2024-03-23T07:21:00;20.38;;;3.80;;
42702;SDS011;28341;52.064;4.920;2024-03-23T07:23:02;14.82;;;3.22;;
42702;SDS011;28341;52.064;4.920;2024-03-23T07:25:05;19.00;;;3.13;;
42702;SDS011;28341;52.064;4.920;2024-03-23T07:27:08;22.02;;;3.45;;
42702;SDS011;28341;52.064;4.920;2024-03-23T07:29:10;21.47;;;5.27;;
42702;SDS011;28341;52.064;4.920;2024-03-23T07:31:13;16.50;;;2.90;;
42702;SDS011;28341;52.064;4.920;2024-03-23T07:35:20;13.18;;;3.20;;
42702;SDS011;28341;52.064;4.920;2024-03-23T07:37:21;19.27;;;3.30;;
42702;SDS011;28341;52.064;4.920;2024-03-23T07:39:23;15.57;;;3.05;;
42702;SDS011;28341;52.064;4.920;2024-03-23T07:41:25;14.32;;;2.92;;
42702;SDS011;28341;52.064;4.920;2024-03-23T07:43:28;23.42;;;4.05;;
42702;SDS011;28341;52.064;4.920;2024-03-23T07:45:29;15.98;;;2.58;;
42702;SDS011;28341;52.064;4.920;2024-03-23T07:47:31;22.52;;;3.30;;
42702;SDS011;28341;52.064;4.920;2024-03-23T07:49:33;16.35;;;3.47;;
42702;SDS011;28341;52.064;4.920;2024-03-23T07:51:38;14.48;;;3.30;;
42702;SDS011;28341;52.064;4.920;2024-03-23T07:53:42;16.95;;;3.40;;
42702;SDS011;28341;52.064;4.920;2024-03-23T07:55:51;18.77;;;3.20;;
42702;SDS011;28341;52.064;4.920;2024-03-23T07:57:55;19.73;;;2.88;;
42702;SDS011;28341;52.064;4.920;2024-03-23T07:59:57;17.38;;;3.13;;
42702;SDS011;28341;52.064;4.920;2024-03-23T08:01:59;18.20;;;3.38;;
42702;SDS011;28341;52.064;4.920;2024-03-23T08:04:01;16.58;;;3.65;;
42702;SDS011;28341;52.064;4.920;2024-03-23T08:06:07;18.75;;;2.65;;
42702;SDS011;28341;52.064;4.920;2024-03-23T08:08:12;15.68;;;2.92;;
42702;SDS011;28341;52.064;4.920;2024-03-23T08:10:14;20.08;;;4.35;;
42702;SDS011;28341;52.064;4.920;2024-03-23T08:12:16;12.05;;;2.30;;
42702;SDS011;28341;52.064;4.920;2024-03-23T08:14:18;20.10;;;3.40;;
42702;SDS011;28341;52.064;4.920;2024-03-23T08:16:21;10.98;;;2.40;;
42702;SDS011;28341;52.064;4.920;2024-03-23T08:18:23;22.58;;;3.08;;
42702;SDS011;28341;52.064;4.920;2024-03-23T08:20:25;18.92;;;3.33;;
42702;SDS011;28341;52.064;4.920;2024-03-23T08:22:27;17.83;;;3.10;;
42702;SDS011;28341;52.064;4.920;2024-03-23T08:24:32;16.02;;;2.55;;
42702;SDS011;28341;52.064;4.920;2024-03-23T08:26:36;16.60;;;3.95;;
42702;SDS011;28341;52.064;4.920;2024-03-23T08:28:37;15.65;;;2.70;;
42702;SDS011;28341;52.064;4.920;2024-03-23T08:30:39;14.80;;;2.97;;
42702;SDS011;28341;52.064;4.920;2024-03-23T08:32:41;13.43;;;2.90;;
42702;SDS011;28341;52.064;4.920;2024-03-23T08:34:44;13.00;;;2.97;;
42702;SDS011;28341;52.064;4.920;2024-03-23T08:36:46;12.43;;;2.60;;
42702;SDS011;28341;52.064;4.920;2024-03-23T08:38:48;14.23;;;2.92;;
42702;SDS011;28341;52.064;4.920;2024-03-23T08:40:58;20.40;;;5.00;;
42702;SDS011;28341;52.064;4.920;2024-03-23T08:43:01;18.20;;;5.32;;
42702;SDS011;28341;52.064;4.920;2024-03-23T08:45:04;11.87;;;2.07;;
42702;SDS011;28341;52.064;4.920;2024-03-23T08:47:08;18.48;;;3.05;;
42702;SDS011;28341;52.064;4.920;2024-03-23T08:49:10;19.73;;;3.25;;
42702;SDS011;28341;52.064;4.920;2024-03-23T08:51:12;16.60;;;2.60;;
42702;SDS011;28341;52.064;4.920;2024-03-23T08:53:16;12.07;;;2.45;;
42702;SDS011;28341;52.064;4.920;2024-03-23T08:55:18;15.40;;;3.33;;
42702;SDS011;28341;52.064;4.920;2024-03-23T08:57:22;15.38;;;2.28;;
42702;SDS011;28341;52.064;4.920;2024-03-23T08:59:24;15.45;;;2.70;;
42702;SDS011;28341;52.064;4.920;2024-03-23T09:01:27;15.77;;;5.93;;
42702;SDS011;28341;52.064;4.920;2024-03-23T09:03:29;46.28;;;18.67;;
42702;SDS011;28341;52.064;4.920;2024-03-23T09:05:31;19.88;;;4.10;;
42702;SDS011;28341;52.064;4.920;2024-03-23T09:07:33;16.67;;;3.05;;
42702;SDS011;28341;52.064;4.920;2024-03-23T09:09:37;19.00;;;3.70;;
42702;SDS011;28341;52.064;4.920;2024-03-23T09:11:40;17.45;;;3.65;;
42702;SDS011;28341;52.064;4.920;2024-03-23T09:13:44;18.73;;;3.80;;
42702;SDS011;28341;52.064;4.920;2024-03-23T09:15:46;14.60;;;3.25;;
42702;SDS011;28341;52.064;4.920;2024-03-23T09:17:50;13.20;;;2.92;;
42702;SDS011;28341;52.064;4.920;2024-03-23T09:19:52;14.68;;;2.90;;
42702;SDS011;28341;52.064;4.920;2024-03-23T09:21:54;13.70;;;3.13;;
42702;SDS011;28341;52.064;4.920;2024-03-23T09:23:56;17.92;;;3.17;;
42702;SDS011;28341;52.064;4.920;2024-03-23T09:25:58;12.88;;;2.85;;
42702;SDS011;28341;52.064;4.920;2024-03-23T09:28:04;24.40;;;3.50;;
42702;SDS011;28341;52.064;4.920;2024-03-23T09:30:10;16.52;;;3.38;;
42702;SDS011;28341;52.064;4.920;2024-03-23T09:32:14;14.93;;;2.67;;
42702;SDS011;28341;52.064;4.920;2024-03-23T09:34:16;22.40;;;3.17;;
42702;SDS011;28341;52.064;4.920;2024-03-23T09:36:18;15.35;;;3.05;;
42702;SDS011;28341;52.064;4.920;2024-03-23T09:38:20;15.52;;;3.58;;
42702;SDS011;28341;52.064;4.920;2024-03-23T09:40:22;19.67;;;2.72;;
42702;SDS011;28341;52.064;4.920;2024-03-23T09:42:24;14.30;;;3.25;;
42702;SDS011;28341;52.064;4.920;2024-03-23T09:44:26;16.88;;;3.30;;
42702;SDS011;28341;52.064;4.920;2024-03-23T09:46:31;21.70;;;3.60;;
42702;SDS011;28341;52.064;4.920;2024-03-23T09:48:33;15.82;;;2.72;;
42702;SDS011;28341;52.064;4.920;2024-03-23T09:50:36;16.70;;;3.40;;
42702;SDS011;28341;52.064;4.920;2024-03-23T09:52:38;15.07;;;3.20;;
42702;SDS011;28341;52.064;4.920;2024-03-23T09:54:42;13.02;;;3.28;;
42702;SDS011;28341;52.064;4.920;2024-03-23T09:56:46;12.07;;;4.25;;
42702;SDS011;28341;52.064;4.920;2024-03-23T09:58:50;17.27;;;3.13;;
42702;SDS011;28341;52.064;4.920;2024-03-23T10:00:53;15.70;;;3.25;;
42702;SDS011;28341;52.064;4.920;2024-03-23T10:02:58;16.30;;;3.25;;
42702;SDS011;28341;52.064;4.920;2024-03-23T10:05:00;14.57;;;2.15;;
42702;SDS011;28341;52.064;4.920;2024-03-23T10:07:12;18.85;;;3.53;;
42702;SDS011;28341;52.064;4.920;2024-03-23T10:09:16;13.75;;;2.65;;
42702;SDS011;28341;52.064;4.920;2024-03-23T10:11:19;14.95;;;3.17;;
42702;SDS011;28341;52.064;4.920;2024-03-23T10:13:24;10.43;;;2.03;;
42702;SDS011;28341;52.064;4.920;2024-03-23T10:15:27;16.55;;;2.50;;
42702;SDS011;28341;52.064;4.920;2024-03-23T10:17:29;13.52;;;2.47;;
42702;SDS011;28341;52.064;4.920;2024-03-23T10:19:33;13.68;;;2.90;;
42702;SDS011;28341;52.064;4.920;2024-03-23T10:21:35;14.20;;;2.15;;
42702;SDS011;28341;52.064;4.920;2024-03-23T10:23:37;10.63;;;1.90;;
42702;SDS011;28341;52.064;4.920;2024-03-23T10:25:40;12.27;;;2.33;;
42702;SDS011;28341;52.064;4.920;2024-03-23T10:27:42;11.55;;;2.33;;
42702;SDS011;28341;52.064;4.920;2024-03-23T10:29:44;17.75;;;4.10;;
42702;SDS011;28341;52.064;4.920;2024-03-23T10:31:47;16.40;;;3.23;;
42702;SDS011;28341;52.064;4.920;2024-03-23T10:33:49;17.63;;;2.92;;
42702;SDS011;28341;52.064;4.920;2024-03-23T10:35:54;13.30;;;2.28;;
42702;SDS011;28341;52.064;4.920;2024-03-23T10:37:56;17.92;;;3.25;;
42702;SDS011;28341;52.064;4.920;2024-03-23T10:39:58;14.32;;;2.67;;
42702;SDS011;28341;52.064;4.920;2024-03-23T10:42:01;13.00;;;2.93;;
42702;SDS011;28341;52.064;4.920;2024-03-23T10:44:05;16.13;;;3.17;;
42702;SDS011;28341;52.064;4.920;2024-03-23T10:46:08;15.00;;;2.88;;
42702;SDS011;28341;52.064;4.920;2024-03-23T10:48:10;14.55;;;2.55;;
42702;SDS011;28341;52.064;4.920;2024-03-23T10:50:12;20.35;;;3.58;;
42702;SDS011;28341;52.064;4.920;2024-03-23T10:52:17;21.83;;;3.15;;
42702;SDS011;28341;52.064;4.920;2024-03-23T10:54:19;19.23;;;3.42;;
42702;SDS011;28341;52.064;4.920;2024-03-23T10:56:21;13.45;;;2.78;;
42702;SDS011;28341;52.064;4.920;2024-03-23T10:58:24;22.20;;;2.60;;
42702;SDS011;28341;52.064;4.920;2024-03-23T11:00:30;18.70;;;3.03;;
42702;SDS011;28341;52.064;4.920;2024-03-23T11:02:32;12.77;;;3.22;;
42702;SDS011;28341;52.064;4.920;2024-03-23T11:04:35;18.85;;;3.13;;
42702;SDS011;28341;52.064;4.920;2024-03-23T11:06:38;20.17;;;3.08;;
42702;SDS011;28341;52.064;4.920;2024-03-23T11:08:43;18.80;;;2.57;;
42702;SDS011;28341;52.064;4.920;2024-03-23T11:10:45;17.67;;;2.45;;
42702;SDS011;28341;52.064;4.920;2024-03-23T11:12:47;15.75;;;2.63;;
42702;SDS011;28341;52.064;4.920;2024-03-23T11:14:50;13.50;;;2.65;;
42702;SDS011;28341;52.064;4.920;2024-03-23T11:17:06;14.15;;;2.40;;
42702;SDS011;28341;52.064;4.920;2024-03-23T11:21:52;13.95;;;2.58;;
42702;SDS011;28341;52.064;4.920;2024-03-23T11:23:57;20.08;;;4.00;;
42702;SDS011;28341;52.064;4.920;2024-03-23T11:26:14;17.50;;;3.20;;
42702;SDS011;28341;52.064;4.920;2024-03-23T11:28:16;15.23;;;2.97;;
42702;SDS011;28341;52.064;4.920;2024-03-23T11:30:20;16.38;;;2.65;;
42702;SDS011;28341;52.064;4.920;2024-03-23T11:32:23;17.08;;;2.80;;
42702;SDS011;28341;52.064;4.920;2024-03-23T11:34:25;16.15;;;2.75;;
42702;SDS011;28341;52.064;4.920;2024-03-23T11:36:27;13.60;;;2.63;;
42702;SDS011;28341;52.064;4.920;2024-03-23T11:38:29;19.05;;;3.53;;
42702;SDS011;28341;52.064;4.920;2024-03-23T11:40:41;14.75;;;3.08;;
42702;SDS011;28341;52.064;4.920;2024-03-23T11:42:44;16.48;;;3.05;;
42702;SDS011;28341;52.064;4.920;2024-03-23T11:44:46;13.25;;;3.03;;
42702;SDS011;28341;52.064;4.920;2024-03-23T11:46:48;16.27;;;2.83;;
42702;SDS011;28341;52.064;4.920;2024-03-23T11:48:50;9.50;;;2.33;;
42702;SDS011;28341;52.064;4.920;2024-03-23T11:50:54;15.50;;;4.35;;
42702;SDS011;28341;52.064;4.920;2024-03-23T11:53:12;17.05;;;4.68;;
42702;SDS011;28341;52.064;4.920;2024-03-23T11:55:16;12.85;;;2.78;;
42702;SDS011;28341;52.064;4.920;2024-03-23T11:57:21;13.10;;;2.42;;
42702;SDS011;28341;52.064;4.920;2024-03-23T11:59:32;13.82;;;2.65;;
42702;SDS011;28341;52.064;4.920;2024-03-23T12:01:35;17.08;;;3.42;;
42702;SDS011;28341;52.064;4.920;2024-03-23T12:03:39;13.05;;;2.42;;
42702;SDS011;28341;52.064;4.920;2024-03-23T12:05:47;12.40;;;2.55;;
42702;SDS011;28341;52.064;4.920;2024-03-23T12:07:51;21.23;;;2.95;;
42702;SDS011;28341;52.064;4.920;2024-03-23T12:10:02;16.48;;;2.35;;
42702;SDS011;28341;52.064;4.920;2024-03-23T12:12:06;11.10;;;2.43;;
42702;SDS011;28341;52.064;4.920;2024-03-23T12:14:14;15.20;;;2.72;;
42702;SDS011;28341;52.064;4.920;2024-03-23T12:16:17;12.63;;;2.25;;
42702;SDS011;28341;52.064;4.920;2024-03-23T12:18:23;20.75;;;7.50;;
42702;SDS011;28341;52.064;4.920;2024-03-23T12:20:25;19.95;;;5.22;;
42702;SDS011;28341;52.064;4.920;2024-03-23T12:22:27;15.55;;;3.22;;
42702;SDS011;28341;52.064;4.920;2024-03-23T12:24:30;10.45;;;2.65;;
42702;SDS011;28341;52.064;4.920;2024-03-23T12:26:32;17.25;;;4.53;;
42702;SDS011;28341;52.064;4.920;2024-03-23T12:28:34;13.02;;;2.42;;
42702;SDS011;28341;52.064;4.920;2024-03-23T12:30:39;12.60;;;2.17;;
42702;SDS011;28341;52.064;4.920;2024-03-23T12:32:41;10.32;;;1.85;;
42702;SDS011;28341;52.064;4.920;2024-03-23T12:34:43;16.95;;;2.60;;
42702;SDS011;28341;52.064;4.920;2024-03-23T12:36:45;9.27;;;2.30;;
42702;SDS011;28341;52.064;4.920;2024-03-23T12:38:47;7.30;;;1.55;;
42702;SDS011;28341;52.064;4.920;2024-03-23T12:40:49;12.90;;;2.60;;
42702;SDS011;28341;52.064;4.920;2024-03-23T12:42:51;12.55;;;2.60;;
42702;SDS011;28341;52.064;4.920;2024-03-23T12:44:53;15.00;;;2.55;;
42702;SDS011;28341;52.064;4.920;2024-03-23T12:46:58;18.95;;;2.97;;
42702;SDS011;28341;52.064;4.920;2024-03-23T12:49:00;12.50;;;2.60;;
42702;SDS011;28341;52.064;4.920;2024-03-23T12:51:02;10.65;;;2.30;;
42702;SDS011;28341;52.064;4.920;2024-03-23T12:53:04;8.05;;;2.00;;
42702;SDS011;28341;52.064;4.920;2024-03-23T12:55:06;11.23;;;1.70;;
42702;SDS011;28341;52.064;4.920;2024-03-23T12:57:09;4.85;;;1.27;;
42702;SDS011;28341;52.064;4.920;2024-03-23T12:59:11;8.73;;;1.70;;
42702;SDS011;28341;52.064;4.920;2024-03-23T13:01:13;11.45;;;2.17;;
42702;SDS011;28341;52.064;4.920;2024-03-23T13:03:17;10.35;;;2.55;;
42702;SDS011;28341;52.064;4.920;2024-03-23T13:05:19;9.80;;;2.25;;
42702;SDS011;28341;52.064;4.920;2024-03-23T13:07:22;9.98;;;1.80;;
42702;SDS011;28341;52.064;4.920;2024-03-23T13:09:24;10.95;;;2.03;;
42702;SDS011;28341;52.064;4.920;2024-03-23T13:11:26;9.10;;;1.50;;
42702;SDS011;28341;52.064;4.920;2024-03-23T13:13:28;11.82;;;1.90;;
42702;SDS011;28341;52.064;4.920;2024-03-23T13:15:30;13.10;;;2.72;;